createdAt,value
2023-05-10T00:01:00.920Z,11.4
2023-05-10T00:05:00.934Z,11.3
2023-05-10T00:06:00.983Z,11.2
2023-05-10T00:08:00.949Z,11.2
2023-05-10T00:09:00.947Z,11.4
2023-05-10T00:11:00.934Z,11.2
2023-05-10T00:12:00.985Z,11.3
2023-05-10T00:17:01.055Z,11.3
2023-05-10T00:18:01.041Z,11.2
2023-05-10T00:20:00.939Z,11
2023-05-10T00:21:01.089Z,11.2
2023-05-10T00:24:01.003Z,11.1
2023-05-10T00:26:00.997Z,11.2
2023-05-10T00:28:00.937Z,11.1
2023-05-10T00:29:00.930Z,11
2023-05-10T00:30:01.167Z,11.1
2023-05-10T00:32:00.968Z,11.1
2023-05-10T00:33:00.995Z,11
2023-05-10T00:34:00.992Z,11.1
2023-05-10T00:36:00.944Z,11.1
2023-05-10T00:39:00.961Z,11.1
2023-05-10T00:40:01.001Z,11
2023-05-10T00:43:00.946Z,11
2023-05-10T00:44:01.003Z,10.8
2023-05-10T00:45:01.112Z,10.9
2023-05-10T00:50:00.960Z,10.8
2023-05-10T00:51:01.004Z,11
2023-05-10T00:56:00.976Z,10.9
2023-05-10T00:57:01.074Z,10.7
2023-05-10T01:06:01.036Z,10.8
2023-05-10T01:08:00.948Z,10.7
2023-05-10T01:09:00.996Z,10.8
2023-05-10T01:13:00.935Z,10.7
2023-05-10T01:14:00.956Z,10.6
2023-05-10T01:15:01.043Z,10.5
2023-05-10T01:16:01.085Z,10.7
2023-05-10T01:23:00.945Z,10.5
2023-05-10T01:24:01.230Z,10.6
2023-05-10T01:26:01.049Z,10.6
2023-05-10T01:28:00.981Z,10.5
2023-05-10T01:32:01.007Z,10.4
2023-05-10T01:33:01.014Z,10.6
2023-05-10T01:35:00.973Z,10.4
2023-05-10T01:36:00.981Z,10.5
2023-05-10T01:37:01.000Z,10.4
2023-05-10T01:40:00.944Z,10.4
2023-05-10T01:41:00.988Z,10.3
2023-05-10T01:44:00.942Z,10.2
2023-05-10T01:45:01.117Z,10.3
2023-05-10T01:47:00.946Z,10.3
2023-05-10T01:48:01.004Z,10.2
2023-05-10T01:50:00.957Z,10.2
2023-05-10T01:52:00.959Z,10.3
2023-05-10T01:54:01.050Z,10.3
2023-05-10T01:56:00.979Z,10.3
2023-05-10T01:57:00.964Z,10.2
2023-05-10T02:00:01.203Z,10.3
2023-05-10T02:03:00.986Z,10.3
2023-05-10T02:05:01.022Z,10.1
2023-05-10T02:06:01.033Z,10
2023-05-10T02:09:00.978Z,10.1
2023-05-10T02:11:00.932Z,10
2023-05-10T02:12:00.956Z,9.9
2023-05-10T02:13:00.996Z,10.1
2023-05-10T02:16:00.977Z,10
2023-05-10T02:18:01.064Z,9.9
2023-05-10T02:23:01.010Z,10
2023-05-10T02:25:00.993Z,9.8
2023-05-10T02:26:01.134Z,10
2023-05-10T02:31:00.933Z,9.8
2023-05-10T02:33:00.993Z,9.9
2023-05-10T02:34:00.967Z,9.8
2023-05-10T02:36:00.956Z,9.8
2023-05-10T02:41:00.999Z,9.7
2023-05-10T02:43:00.981Z,9.7
2023-05-10T02:44:01.027Z,9.5
2023-05-10T02:45:01.047Z,9.7
2023-05-10T02:49:00.965Z,9.6
2023-05-10T02:52:00.946Z,9.7
2023-05-10T02:54:00.978Z,9.6
2023-05-10T02:56:01.015Z,9.4
2023-05-10T02:58:00.955Z,9.5
2023-05-10T03:00:01.201Z,9.6
2023-05-10T03:03:00.962Z,9.6
2023-05-10T03:05:01.019Z,9.5
2023-05-10T03:08:00.941Z,9.6
2023-05-10T03:17:00.963Z,9.7
2023-05-10T03:19:00.946Z,9.6
2023-05-10T03:27:00.995Z,9.7
2023-05-10T03:29:00.984Z,9.8
2023-05-10T03:30:01.242Z,9.6
2023-05-10T03:32:00.968Z,9.6
2023-05-10T03:36:01.051Z,9.8
2023-05-10T03:38:00.998Z,9.8
2023-05-10T03:43:00.944Z,9.9
2023-05-10T03:45:01.157Z,10
2023-05-10T03:48:01.381Z,10
2023-05-10T03:51:00.964Z,10.1
2023-05-10T03:52:01.084Z,10
2023-05-10T03:54:01.031Z,10.1
2023-05-10T03:56:01.127Z,10.2
2023-05-10T03:59:01.014Z,10.3
2023-05-10T04:02:01.032Z,10.5
2023-05-10T04:04:01.047Z,10.3
2023-05-10T04:06:01.017Z,10.4
2023-05-10T04:09:00.964Z,10.5
2023-05-10T04:12:01.013Z,10.6
2023-05-10T04:13:01.009Z,10.7
2023-05-10T04:14:01.057Z,10.6
2023-05-10T04:15:01.179Z,10.8
2023-05-10T04:17:00.996Z,10.7
2023-05-10T04:18:01.179Z,10.8
2023-05-10T04:23:00.971Z,10.9
2023-05-10T04:24:00.980Z,11
2023-05-10T04:25:01.006Z,11.2
2023-05-10T04:27:00.974Z,12.1
2023-05-10T04:29:01.044Z,13
2023-05-10T04:31:00.975Z,13.8
2023-05-10T04:32:00.939Z,14.2
2023-05-10T04:33:00.993Z,14.4
2023-05-10T04:35:00.971Z,15
2023-05-10T04:36:00.997Z,15.3
2023-05-10T04:38:00.956Z,15.4
2023-05-10T04:39:00.946Z,15.7
2023-05-10T04:42:01.018Z,16
2023-05-10T04:44:00.976Z,16.5
2023-05-10T04:45:00.975Z,16.7
2023-05-10T04:47:00.927Z,17.3
2023-05-10T04:48:00.976Z,17.5
2023-05-10T04:49:00.961Z,17.6
2023-05-10T04:51:01.126Z,18
2023-05-10T04:53:00.936Z,18.2
2023-05-10T04:54:06.332Z,18
2023-05-10T04:57:01.077Z,17.9
2023-05-10T04:59:00.962Z,18.2
2023-05-10T05:00:01.122Z,18.5
2023-05-10T05:02:01.149Z,18.8
2023-05-10T05:03:01.156Z,18.9
2023-05-10T05:05:01.069Z,18.8
2023-05-10T05:07:01.061Z,18.9
2023-05-10T05:09:01.026Z,19.2
2023-05-10T05:10:01.107Z,19
2023-05-10T05:12:01.177Z,18.9
2023-05-10T05:14:01.169Z,18.3
2023-05-10T05:16:01.165Z,17.7
2023-05-10T05:17:01.063Z,17.5
2023-05-10T05:19:01.026Z,16.9
2023-05-10T05:20:01.100Z,16.5
2023-05-10T05:22:00.971Z,16.1
2023-05-10T05:23:00.990Z,16
2023-05-10T05:25:01.010Z,15.8
2023-05-10T05:27:01.023Z,15.4
2023-05-10T05:28:01.086Z,15.3
2023-05-10T05:31:01.007Z,15
2023-05-10T05:33:01.289Z,14.7
2023-05-10T05:35:01.096Z,14.7
2023-05-10T05:38:01.016Z,15
2023-05-10T05:39:01.214Z,15.2
2023-05-10T05:41:01.236Z,15.6
2023-05-10T05:43:01.030Z,16.1
2023-05-10T05:46:01.001Z,16
2023-05-10T05:48:01.016Z,15.7
2023-05-10T05:50:01.097Z,15.6
2023-05-10T05:51:01.242Z,15.5
2023-05-10T05:54:00.953Z,15.3
2023-05-10T05:56:01.028Z,15.1
2023-05-10T05:57:01.469Z,15
2023-05-10T05:59:01.060Z,14.9
2023-05-10T06:01:01.060Z,14.7
2023-05-10T06:04:00.981Z,14.3
2023-05-10T06:06:00.957Z,14.2
2023-05-10T06:10:01.205Z,14.1
2023-05-10T06:12:01.118Z,13.9
2023-05-10T06:16:01.139Z,13.7
2023-05-10T06:18:01.159Z,13.6
2023-05-10T06:20:01.056Z,13.6
2023-05-10T06:21:01.013Z,13.5
2023-05-10T06:25:01.026Z,13.4
2023-05-10T06:26:01.283Z,13.5
2023-05-10T06:29:01.031Z,13.3
2023-05-10T06:31:01.072Z,13.5
2023-05-10T06:34:01.025Z,13.5
2023-05-10T06:37:01.011Z,13.4
2023-05-10T06:39:01.058Z,13.5
2023-05-10T06:44:00.975Z,13.7
2023-05-10T06:46:01.020Z,13.6
2023-05-10T06:48:01.065Z,13.8
2023-05-10T06:56:01.015Z,13.7
2023-05-10T06:57:01.897Z,13.8
2023-05-10T07:03:01.144Z,13.9
2023-05-10T07:05:03.050Z,14
2023-05-10T07:07:01.006Z,13.9
2023-05-10T07:08:01.018Z,14
2023-05-10T07:10:00.991Z,14.1
2023-05-10T07:12:01.019Z,14
2023-05-10T07:13:01.129Z,14.1
2023-05-10T07:14:01.132Z,14
2023-05-10T07:18:01.207Z,13.9
2023-05-10T07:23:01.107Z,14
2023-05-10T07:24:01.155Z,14.1
2023-05-10T07:26:01.018Z,14.3
2023-05-10T07:27:01.030Z,14.1
2023-05-10T07:31:01.065Z,14.3
2023-05-10T07:34:00.974Z,14.2
2023-05-10T07:36:00.983Z,14.4
2023-05-10T07:37:01.079Z,14.3
2023-05-10T07:42:01.004Z,14.5
2023-05-10T07:46:00.993Z,14.4
2023-05-10T07:51:01.192Z,14.5
2023-05-10T07:53:01.050Z,14.6
2023-05-10T07:56:01.172Z,14.5
2023-05-10T07:58:01.041Z,14.4
2023-05-10T08:01:01.190Z,14.5
2023-05-10T08:08:01.024Z,14.6
2023-05-10T08:11:01.048Z,14.3
2023-05-10T08:14:01.012Z,14.3
2023-05-10T08:17:01.033Z,14.4
2023-05-10T08:18:01.099Z,14.3
2023-05-10T08:21:01.073Z,14.4
2023-05-10T08:22:01.068Z,14.2
2023-05-10T08:24:01.136Z,14.2
2023-05-10T08:26:01.467Z,14.4
2023-05-10T08:28:01.143Z,14.1
2023-05-10T08:31:01.054Z,14
2023-05-10T08:33:01.141Z,14.2
2023-05-10T08:35:01.023Z,14.2
2023-05-10T08:38:01.008Z,13.9
2023-05-10T08:39:01.227Z,14
2023-05-10T08:43:01.147Z,13.6
2023-05-10T08:45:01.332Z,13.7
2023-05-10T08:48:01.033Z,13.6
2023-05-10T08:49:01.100Z,13.4
2023-05-10T08:52:01.018Z,13.3
2023-05-10T08:53:01.088Z,13.5
2023-05-10T08:57:01.053Z,13.2
2023-05-10T09:00:01.369Z,13.3
2023-05-10T09:02:01.209Z,13.2
2023-05-10T09:05:01.212Z,13.3
2023-05-10T09:06:01.402Z,13.2
2023-05-10T09:11:01.155Z,13.3
2023-05-10T09:15:01.203Z,13.5
2023-05-10T09:21:01.027Z,13.7
2023-05-10T09:22:01.058Z,13.5
2023-05-10T09:24:00.984Z,13.6
2023-05-10T09:33:01.133Z,13.7
2023-05-10T09:36:01.028Z,13.6
2023-05-10T09:41:01.218Z,13.7
2023-05-10T09:44:00.970Z,13.7
2023-05-10T09:46:01.066Z,13.8
2023-05-10T09:50:01.014Z,13.9
2023-05-10T09:52:01.015Z,14
2023-05-10T09:53:01.051Z,13.8
2023-05-10T09:55:01.026Z,13.9
2023-05-10T09:56:01.238Z,14.1
2023-05-10T09:59:01.023Z,13.8
2023-05-10T10:00:01.572Z,14
2023-05-10T10:03:01.078Z,14.1
2023-05-10T10:04:01.142Z,14
2023-05-10T10:06:01.157Z,13.9
2023-05-10T10:09:01.057Z,14.1
2023-05-10T10:11:01.004Z,14
2023-05-10T10:13:01.021Z,14.1
2023-05-10T10:15:01.378Z,14
2023-05-10T10:17:07.921Z,14.1
2023-05-10T10:21:01.132Z,14.2
2023-05-10T10:22:01.151Z,14.1
2023-05-10T10:24:01.332Z,14.1
2023-05-10T10:26:01.155Z,14
2023-05-10T10:29:01.086Z,14.2
2023-05-10T10:31:01.029Z,14.1
2023-05-10T10:34:00.949Z,14.1
2023-05-10T10:37:01.016Z,14.2
2023-05-10T10:38:01.012Z,14.1
2023-05-10T10:39:01.024Z,14
2023-05-10T10:45:01.083Z,13.9
2023-05-10T10:47:01.163Z,13.8
2023-05-10T10:51:01.175Z,13.8
2023-05-10T10:53:01.061Z,13.7
2023-05-10T10:57:01.159Z,13.7
2023-05-10T11:00:01.209Z,13.7
2023-05-10T11:02:00.954Z,13.6
2023-05-10T11:03:01.158Z,13.8
2023-05-10T11:05:01.076Z,13.7
2023-05-10T11:09:01.002Z,13.9
2023-05-10T11:11:01.099Z,14
2023-05-10T11:13:01.001Z,14
2023-05-10T11:17:01.067Z,14.2
2023-05-10T11:19:01.092Z,14.3
2023-05-10T11:21:01.067Z,14.2
2023-05-10T11:22:01.387Z,14.4
2023-05-10T11:26:01.005Z,14.5
2023-05-10T11:27:01.051Z,14.4
2023-05-10T11:31:01.128Z,14.3
2023-05-10T11:33:01.046Z,14.3
2023-05-10T11:34:01.019Z,14.4
2023-05-10T11:37:01.066Z,14.5
2023-05-10T11:40:01.098Z,14.4
2023-05-10T11:44:00.963Z,14.6
2023-05-10T11:47:01.142Z,14.8
2023-05-10T11:51:01.109Z,14.8
2023-05-10T11:53:01.180Z,14.7
2023-05-10T11:55:01.060Z,15
2023-05-10T11:56:01.071Z,14.9
2023-05-10T11:58:00.997Z,15
2023-05-10T11:59:01.119Z,15.2
2023-05-10T12:01:01.082Z,15.3
2023-05-10T12:03:01.213Z,15.3
2023-05-10T12:06:01.212Z,15.5
2023-05-10T12:08:01.113Z,15.6
2023-05-10T12:09:01.050Z,15.5
2023-05-10T12:12:01.201Z,15.6
2023-05-10T12:19:01.024Z,15.6
2023-05-10T12:20:01.145Z,15.7
2023-05-10T12:22:01.167Z,15.8
2023-05-10T12:24:01.090Z,15.8
2023-05-10T12:33:01.055Z,16
2023-05-10T12:34:01.013Z,15.9
2023-05-10T12:36:00.994Z,16.1
2023-05-10T12:37:01.243Z,16.2
2023-05-10T12:39:01.172Z,16.1
2023-05-10T12:45:01.353Z,16
2023-05-10T12:50:00.999Z,15.9
2023-05-10T12:51:01.213Z,16
2023-05-10T12:53:01.211Z,16.1
2023-05-10T12:56:01.009Z,15.9
2023-05-10T12:57:01.104Z,16.1
2023-05-10T12:59:01.111Z,16
2023-05-10T13:01:01.209Z,16.1
2023-05-10T13:03:01.090Z,16.1
2023-05-10T13:05:01.089Z,16.2
2023-05-10T13:07:01.044Z,16.2
2023-05-10T13:12:00.991Z,16.3
2023-05-10T13:14:00.979Z,16.4
2023-05-10T13:16:01.018Z,16.3
2023-05-10T13:17:01.047Z,16.4
2023-05-10T13:19:01.119Z,16.5
2023-05-10T13:20:01.136Z,16.6
2023-05-10T13:22:01.149Z,16.6
2023-05-10T13:24:00.965Z,16.5
2023-05-10T13:26:01.097Z,16.6
2023-05-10T13:32:01.092Z,16.7
2023-05-10T13:35:01.044Z,16.8
2023-05-10T13:37:01.035Z,16.6
2023-05-10T13:41:01.361Z,16.8
2023-05-10T13:43:01.123Z,16.8
2023-05-10T13:45:01.227Z,16.7
2023-05-10T13:46:01.313Z,16.6
2023-05-10T13:48:01.001Z,16.6
2023-05-10T13:49:01.183Z,16.7
2023-05-10T13:52:01.083Z,16.5
2023-05-10T14:02:01.073Z,16.4
2023-05-10T14:03:01.126Z,16.3
2023-05-10T14:04:01.208Z,16.4
2023-05-10T14:05:01.057Z,16.3
2023-05-10T14:06:01.080Z,16.4
2023-05-10T14:10:01.054Z,16.3
2023-05-10T14:12:01.111Z,16.4
2023-05-10T14:14:01.228Z,16.3
2023-05-10T14:17:01.035Z,16.4
2023-05-10T14:19:01.118Z,16.2
2023-05-10T14:21:01.038Z,16.4
2023-05-10T14:22:01.038Z,16.3
2023-05-10T14:26:01.140Z,16.5
2023-05-10T14:27:01.136Z,16.3
2023-05-10T14:29:01.092Z,16.4
2023-05-10T14:31:01.041Z,16.3
2023-05-10T14:32:01.091Z,16.2
2023-05-10T14:35:01.071Z,16.3
2023-05-10T14:38:01.300Z,16.2
2023-05-10T14:41:01.099Z,16.3
2023-05-10T14:42:01.052Z,16.2
2023-05-10T14:43:01.072Z,16.3
2023-05-10T14:45:01.086Z,16.2
2023-05-10T14:48:01.028Z,16.3
2023-05-10T14:49:01.018Z,16.2
2023-05-10T14:53:01.009Z,16.1
2023-05-10T14:56:01.135Z,16.3
2023-05-10T14:58:01.038Z,16.1
2023-05-10T15:03:01.216Z,16.2
2023-05-10T15:05:01.131Z,16.1
2023-05-10T15:08:01.060Z,16.2
2023-05-10T15:09:01.125Z,16
2023-05-10T15:15:01.170Z,15.9
2023-05-10T15:17:01.036Z,16
2023-05-10T15:25:01.022Z,16
2023-05-10T15:26:01.186Z,15.9
2023-05-10T15:28:01.004Z,15.9
2023-05-10T15:34:01.081Z,15.8
2023-05-10T15:36:01.203Z,16
2023-05-10T15:41:01.054Z,15.8
2023-05-10T15:42:01.155Z,15.9
2023-05-10T15:46:01.137Z,15.7
2023-05-10T15:48:01.022Z,15.9
2023-05-10T15:49:01.017Z,15.7
2023-05-10T15:53:01.092Z,15.8
2023-05-10T15:55:01.013Z,15.8
2023-05-10T15:57:01.035Z,15.9
2023-05-10T16:01:01.278Z,15.6
2023-05-10T16:04:00.998Z,15.6
2023-05-10T16:05:01.218Z,15.4
2023-05-10T16:07:01.164Z,15.4
2023-05-10T16:12:00.947Z,15.2
2023-05-10T16:14:00.986Z,15.3
2023-05-10T16:16:01.135Z,15.1
2023-05-10T16:17:01.283Z,15.2
2023-05-10T16:19:01.235Z,15.2
2023-05-10T16:26:00.994Z,15
2023-05-10T16:27:01.169Z,15.1
2023-05-10T16:29:01.396Z,15
2023-05-10T16:31:01.070Z,15.1
2023-05-10T16:33:01.230Z,15
2023-05-10T16:35:01.042Z,15
2023-05-10T16:37:01.193Z,14.9
2023-05-10T16:39:01.325Z,14.9
2023-05-10T16:41:01.245Z,14.7
2023-05-10T16:43:01.138Z,14.8
2023-05-10T16:48:01.045Z,15
2023-05-10T16:49:01.090Z,14.9
2023-05-10T16:53:01.017Z,14.9
2023-05-10T16:54:01.097Z,14.8
2023-05-10T16:57:01.077Z,14.6
2023-05-10T16:59:01.101Z,14.8
2023-05-10T17:00:01.448Z,14.7
2023-05-10T17:02:01.027Z,14.8
2023-05-10T17:03:01.176Z,14.7
2023-05-10T17:06:00.989Z,14.7
2023-05-10T17:07:01.376Z,14.8
2023-05-10T17:12:01.009Z,14.8
2023-05-10T17:13:01.174Z,14.7
2023-05-10T17:17:01.319Z,14.8
2023-05-10T17:19:01.040Z,14.7
2023-05-10T17:21:01.031Z,14.8
2023-05-10T17:22:01.329Z,14.7
2023-05-10T17:23:01.008Z,14.8
2023-05-10T17:27:01.372Z,14.8
2023-05-10T17:32:01.079Z,14.6
2023-05-10T17:33:01.202Z,14.5
2023-05-10T17:35:01.164Z,14.6
2023-05-10T17:37:01.051Z,14.4
2023-05-10T17:41:01.257Z,14.5
2023-05-10T17:43:01.153Z,14.4
2023-05-10T17:45:01.281Z,14.3
2023-05-10T17:51:01.188Z,14.2
2023-05-10T17:53:01.023Z,14.3
2023-05-10T17:55:01.103Z,14.2
2023-05-10T17:56:01.318Z,14.3
2023-05-10T17:59:01.110Z,14.1
2023-05-10T18:01:01.064Z,14.3
2023-05-10T18:03:01.164Z,14.3
2023-05-10T18:05:01.141Z,14.2
2023-05-10T18:10:01.203Z,14.1
2023-05-10T18:11:01.107Z,14
2023-05-10T18:13:01.167Z,14.1
2023-05-10T18:14:01.197Z,13.9
2023-05-10T18:17:01.153Z,13.8
2023-05-10T18:19:01.107Z,13.9
2023-05-10T18:21:01.126Z,13.7
2023-05-10T18:22:01.177Z,13.8
2023-05-10T18:26:01.204Z,13.7
2023-05-10T18:27:01.175Z,13.8
2023-05-10T18:29:01.682Z,13.7
2023-05-10T18:34:00.977Z,13.6
2023-05-10T18:35:01.017Z,13.8
2023-05-10T18:36:01.100Z,13.7
2023-05-10T18:43:01.095Z,13.7
2023-05-10T18:46:01.104Z,13.8
2023-05-10T18:49:01.079Z,13.7
2023-05-10T18:53:01.039Z,13.8
2023-05-10T18:55:01.033Z,13.7
2023-05-10T19:00:01.167Z,13.8
2023-05-10T19:02:01.113Z,13.7
2023-05-10T19:03:01.089Z,13.6
2023-05-10T19:05:01.200Z,13.7
2023-05-10T19:06:01.159Z,13.6
2023-05-10T19:08:01.173Z,13.7
2023-05-10T19:10:01.118Z,13.5
2023-05-10T19:12:01.197Z,13.7
2023-05-10T19:16:01.196Z,13.4
2023-05-10T19:18:02.948Z,13.5
2023-05-10T19:22:01.388Z,13.4
2023-05-10T19:25:01.112Z,13.3
2023-05-10T19:27:01.060Z,13.4
2023-05-10T19:29:02.278Z,13.3
2023-05-10T19:37:01.247Z,13.2
2023-05-10T19:40:01.384Z,13.3
2023-05-10T19:43:01.184Z,13.3
2023-05-10T19:52:01.751Z,13.2
2023-05-10T19:58:01.004Z,13.2
2023-05-10T19:59:01.022Z,13.3
2023-05-10T20:00:01.231Z,13.2
2023-05-10T20:02:00.962Z,13.4
2023-05-10T20:03:01.048Z,13.2
2023-05-10T20:04:01.047Z,13.3
2023-05-10T20:07:00.938Z,13.2
2023-05-10T20:08:00.952Z,13.3
2023-05-10T20:10:00.982Z,13.1
2023-05-10T20:14:00.960Z,13.3
2023-05-10T20:15:01.132Z,13.2
2023-05-10T20:17:01.001Z,13.2
2023-05-10T20:20:00.989Z,13.3
2023-05-10T20:21:00.986Z,13.1
2023-05-10T20:22:01.011Z,13.2
2023-05-10T20:25:00.940Z,13.2
2023-05-10T20:27:00.930Z,13.3
2023-05-10T20:28:01.045Z,13.4
2023-05-10T20:31:00.933Z,13.3
2023-05-10T20:33:00.981Z,13.1
2023-05-10T20:34:00.953Z,13.2
2023-05-10T20:38:01.061Z,13.1
2023-05-10T20:41:00.957Z,13
2023-05-10T20:50:00.966Z,12.9
2023-05-10T20:51:00.961Z,13.1
2023-05-10T20:53:01.003Z,13
2023-05-10T20:54:00.986Z,12.9
2023-05-10T20:56:01.025Z,13.1
2023-05-10T20:59:01.031Z,13.1
2023-05-10T21:00:01.074Z,13
2023-05-10T21:03:01.007Z,12.9
2023-05-10T21:04:00.997Z,13
2023-05-10T21:06:01.058Z,13.1
2023-05-10T21:08:01.015Z,12.9
2023-05-10T21:10:01.045Z,13
2023-05-10T21:13:01.024Z,13
2023-05-10T21:14:00.954Z,12.9
2023-05-10T21:16:00.965Z,13
2023-05-10T21:19:01.075Z,13.1
2023-05-10T21:21:01.009Z,13
2023-05-10T21:23:00.959Z,13.1
2023-05-10T21:31:00.936Z,13
2023-05-10T21:32:00.992Z,13.1
2023-05-10T21:40:01.002Z,13.2
2023-05-10T21:42:01.200Z,13
2023-05-10T21:44:01.017Z,13
2023-05-10T21:45:01.060Z,13.1
2023-05-10T21:47:00.989Z,13
2023-05-10T21:49:00.938Z,12.9
2023-05-10T21:51:01.023Z,12.8
2023-05-10T21:53:01.018Z,12.9
2023-05-10T21:54:01.036Z,12.8
2023-05-10T21:57:01.043Z,12.8
2023-05-10T22:04:00.972Z,12.8
2023-05-10T22:10:00.982Z,12.9
2023-05-10T22:12:00.981Z,12.8
2023-05-10T22:20:00.967Z,12.7
2023-05-10T22:24:01.304Z,12.8
2023-05-10T22:31:00.960Z,12.6
2023-05-10T22:32:00.994Z,12.7
2023-05-10T22:34:00.986Z,12.6
2023-05-10T22:36:01.146Z,12.6
2023-05-10T22:44:00.967Z,12.5
2023-05-10T22:46:01.020Z,12.6
2023-05-10T22:48:01.093Z,12.7
2023-05-10T22:56:01.004Z,12.5
2023-05-10T22:58:01.005Z,12.4
2023-05-10T23:00:01.042Z,12.4
2023-05-10T23:03:01.022Z,12.4
2023-05-10T23:05:00.967Z,12.5
2023-05-10T23:07:00.920Z,12.3
2023-05-10T23:08:00.953Z,12.4
2023-05-10T23:11:00.952Z,12.3
2023-05-10T23:12:00.995Z,12.4
2023-05-10T23:14:00.931Z,12.3
2023-05-10T23:16:00.956Z,12.4
2023-05-10T23:18:01.064Z,12.3
2023-05-10T23:21:00.989Z,12.2
2023-05-10T23:24:00.994Z,12.4
2023-05-10T23:25:00.957Z,12.3
2023-05-10T23:28:00.999Z,12.2
2023-05-10T23:30:01.300Z,12.2
2023-05-10T23:32:01.022Z,12.3
2023-05-10T23:34:00.963Z,12.2
2023-05-10T23:35:00.949Z,12.3
2023-05-10T23:36:01.092Z,12.2
2023-05-10T23:38:00.960Z,12.4
2023-05-10T23:39:00.996Z,12.2
2023-05-10T23:41:01.035Z,12.1
2023-05-10T23:46:01.020Z,12.2
2023-05-10T23:48:01.075Z,12.1
2023-05-10T23:54:01.016Z,12.1
2023-05-10T23:56:01.010Z,12.3
2023-05-10T23:59:00.940Z,12.2
